sensor_id;sensor_type;location;lat;lon;timestamp;pressure;altitude;pressure_sealevel;temperature;humidity
6506;BME280;3286;49.858;8.768;2023-04-22T00:02:19;98551.19;;;14.15;52.90
6506;BME280;3286;49.858;8.768;2023-04-22T00:04:48;98548.28;;;14.10;53.31
6506;BME280;3286;49.858;8.768;2023-04-22T00:07:16;98550.84;;;14.25;52.70
6506;BME280;3286;49.858;8.768;2023-04-22T00:09:42;98542.69;;;14.05;52.97
6506;BME280;3286;49.858;8.768;2023-04-22T00:12:11;98552.25;;;14.21;52.46
6506;BME280;3286;49.858;8.768;2023-04-22T00:14:38;98548.75;;;13.99;53.26
6506;BME280;3286;49.858;8.768;2023-04-22T00:17:04;98550.56;;;13.76;53.87
6506;BME280;3286;49.858;8.768;2023-04-22T00:19:32;98544.88;;;14.16;52.52
6506;BME280;3286;49.858;8.768;2023-04-22T00:22:02;98551.88;;;14.02;53.08
6506;BME280;3286;49.858;8.768;2023-04-22T00:24:29;98550.34;;;13.93;53.72
6506;BME280;3286;49.858;8.768;2023-04-22T00:26:56;98543.88;;;13.81;53.92
6506;BME280;3286;49.858;8.768;2023-04-22T00:29:23;98542.06;;;14.03;53.39
6506;BME280;3286;49.858;8.768;2023-04-22T00:31:50;98541.22;;;13.81;54.40
6506;BME280;3286;49.858;8.768;2023-04-22T00:34:17;98538.34;;;13.97;53.85
6506;BME280;3286;49.858;8.768;2023-04-22T00:36:44;98533.84;;;13.98;53.88
6506;BME280;3286;49.858;8.768;2023-04-22T00:39:12;98537.88;;;13.94;54.20
6506;BME280;3286;49.858;8.768;2023-04-22T00:41:39;98532.31;;;13.88;54.47
6506;BME280;3286;49.858;8.768;2023-04-22T00:44:07;98532.19;;;13.75;54.42
6506;BME280;3286;49.858;8.768;2023-04-22T00:46:36;98528.22;;;13.49;55.10
6506;BME280;3286;49.858;8.768;2023-04-22T00:49:03;98529.53;;;13.75;54.58
6506;BME280;3286;49.858;8.768;2023-04-22T00:51:30;98529.47;;;13.38;55.79
6506;BME280;3286;49.858;8.768;2023-04-22T00:53:56;98524.59;;;13.72;54.77
6506;BME280;3286;49.858;8.768;2023-04-22T00:56:25;98527.03;;;13.22;55.98
6506;BME280;3286;49.858;8.768;2023-04-22T00:58:53;98531.75;;;13.56;55.26
6506;BME280;3286;49.858;8.768;2023-04-22T01:01:20;98536.28;;;13.77;54.46
6506;BME280;3286;49.858;8.768;2023-04-22T01:03:48;98540.72;;;13.55;54.83
6506;BME280;3286;49.858;8.768;2023-04-22T01:06:17;98525.91;;;13.61;54.37
6506;BME280;3286;49.858;8.768;2023-04-22T01:08:45;98516.13;;;13.31;55.66
6506;BME280;3286;49.858;8.768;2023-04-22T01:11:12;98519.06;;;13.37;55.62
6506;BME280;3286;49.858;8.768;2023-04-22T01:13:40;98518.88;;;13.53;55.16
6506;BME280;3286;49.858;8.768;2023-04-22T01:16:07;98526.56;;;13.33;55.88
6506;BME280;3286;49.858;8.768;2023-04-22T01:18:34;98524.75;;;13.33;56.24
6506;BME280;3286;49.858;8.768;2023-04-22T01:21:01;98518.13;;;13.44;55.35
6506;BME280;3286;49.858;8.768;2023-04-22T01:23:29;98518.59;;;13.18;56.34
6506;BME280;3286;49.858;8.768;2023-04-22T01:25:56;98516.56;;;13.65;54.64
6506;BME280;3286;49.858;8.768;2023-04-22T01:28:23;98525.38;;;13.36;55.60
6506;BME280;3286;49.858;8.768;2023-04-22T01:30:50;98510.28;;;13.51;55.02
6506;BME280;3286;49.858;8.768;2023-04-22T01:33:17;98518.59;;;13.48;55.21
6506;BME280;3286;49.858;8.768;2023-04-22T01:35:44;98512.19;;;13.57;55.14
6506;BME280;3286;49.858;8.768;2023-04-22T01:38:11;98515.16;;;13.47;55.30
6506;BME280;3286;49.858;8.768;2023-04-22T01:40:40;98520.50;;;13.54;55.09
6506;BME280;3286;49.858;8.768;2023-04-22T01:43:07;98515.91;;;13.63;54.73
6506;BME280;3286;49.858;8.768;2023-04-22T01:45:33;98514.00;;;13.42;55.41
6506;BME280;3286;49.858;8.768;2023-04-22T01:48:00;98516.50;;;13.28;55.30
6506;BME280;3286;49.858;8.768;2023-04-22T01:50:27;98517.78;;;13.32;55.46
6506;BME280;3286;49.858;8.768;2023-04-22T01:52:54;98515.19;;;13.54;55.29
6506;BME280;3286;49.858;8.768;2023-04-22T01:55:21;98515.63;;;13.06;56.38
6506;BME280;3286;49.858;8.768;2023-04-22T01:57:49;98523.19;;;13.09;56.76
6506;BME280;3286;49.858;8.768;2023-04-22T02:00:17;98517.34;;;13.14;56.39
6506;BME280;3286;49.858;8.768;2023-04-22T02:02:43;98521.06;;;13.35;56.16
6506;BME280;3286;49.858;8.768;2023-04-22T02:05:10;98527.38;;;13.33;55.46
6506;BME280;3286;49.858;8.768;2023-04-22T02:07:37;98523.44;;;13.44;55.44
6506;BME280;3286;49.858;8.768;2023-04-22T02:10:03;98514.25;;;13.10;56.11
6506;BME280;3286;49.858;8.768;2023-04-22T02:12:30;98515.94;;;13.18;55.65
6506;BME280;3286;49.858;8.768;2023-04-22T02:14:58;98523.38;;;13.23;55.93
6506;BME280;3286;49.858;8.768;2023-04-22T02:17:25;98523.38;;;13.08;56.31
6506;BME280;3286;49.858;8.768;2023-04-22T02:19:53;98525.00;;;13.24;55.87
6506;BME280;3286;49.858;8.768;2023-04-22T02:22:20;98522.63;;;13.14;56.25
6506;BME280;3286;49.858;8.768;2023-04-22T02:24:47;98523.00;;;13.11;56.62
6506;BME280;3286;49.858;8.768;2023-04-22T02:27:14;98519.06;;;13.22;56.46
6506;BME280;3286;49.858;8.768;2023-04-22T02:29:40;98526.03;;;13.23;56.14
6506;BME280;3286;49.858;8.768;2023-04-22T02:32:08;98527.44;;;13.40;55.59
6506;BME280;3286;49.858;8.768;2023-04-22T02:34:35;98535.78;;;13.22;56.10
6506;BME280;3286;49.858;8.768;2023-04-22T02:37:01;98532.34;;;13.22;56.26
6506;BME280;3286;49.858;8.768;2023-04-22T02:39:28;98538.38;;;13.30;55.92
6506;BME280;3286;49.858;8.768;2023-04-22T02:41:55;98542.22;;;13.43;55.79
6506;BME280;3286;49.858;8.768;2023-04-22T02:44:21;98549.78;;;13.01;57.00
6506;BME280;3286;49.858;8.768;2023-04-22T02:46:48;98545.31;;;13.31;56.08
6506;BME280;3286;49.858;8.768;2023-04-22T02:49:16;98540.72;;;13.40;55.95
6506;BME280;3286;49.858;8.768;2023-04-22T02:51:42;98546.06;;;13.10;56.88
6506;BME280;3286;49.858;8.768;2023-04-22T02:54:09;98543.84;;;12.99;57.26
6506;BME280;3286;49.858;8.768;2023-04-22T02:56:36;98540.75;;;13.10;56.88
6506;BME280;3286;49.858;8.768;2023-04-22T02:59:02;98532.97;;;13.24;56.65
6506;BME280;3286;49.858;8.768;2023-04-22T03:01:29;98536.81;;;13.06;56.73
6506;BME280;3286;49.858;8.768;2023-04-22T03:03:56;98525.91;;;13.16;56.64
6506;BME280;3286;49.858;8.768;2023-04-22T03:06:24;98533.97;;;13.08;56.93
6506;BME280;3286;49.858;8.768;2023-04-22T03:08:51;98537.75;;;13.13;56.82
6506;BME280;3286;49.858;8.768;2023-04-22T03:11:17;98528.31;;;13.26;56.33
6506;BME280;3286;49.858;8.768;2023-04-22T03:13:44;98534.34;;;13.04;56.95
6506;BME280;3286;49.858;8.768;2023-04-22T03:16:10;98531.22;;;13.01;57.31
6506;BME280;3286;49.858;8.768;2023-04-22T03:18:37;98530.69;;;12.90;57.28
6506;BME280;3286;49.858;8.768;2023-04-22T03:21:04;98541.19;;;12.99;56.95
6506;BME280;3286;49.858;8.768;2023-04-22T03:23:32;98531.53;;;13.06;56.74
6506;BME280;3286;49.858;8.768;2023-04-22T03:25:59;98528.69;;;13.08;56.66
6506;BME280;3286;49.858;8.768;2023-04-22T03:28:26;98545.31;;;13.01;56.83
6506;BME280;3286;49.858;8.768;2023-04-22T03:30:52;98538.19;;;12.87;57.18
6506;BME280;3286;49.858;8.768;2023-04-22T03:33:19;98545.69;;;12.98;56.57
6506;BME280;3286;49.858;8.768;2023-04-22T03:35:46;98544.13;;;12.89;56.80
6506;BME280;3286;49.858;8.768;2023-04-22T03:38:13;98538.34;;;12.70;57.44
6506;BME280;3286;49.858;8.768;2023-04-22T03:40:41;98540.28;;;12.92;56.80
6506;BME280;3286;49.858;8.768;2023-04-22T03:43:08;98548.81;;;12.64;57.25
6506;BME280;3286;49.858;8.768;2023-04-22T03:45:34;98549.84;;;12.78;57.04
6506;BME280;3286;49.858;8.768;2023-04-22T03:48:01;98544.53;;;12.63;57.49
6506;BME280;3286;49.858;8.768;2023-04-22T03:50:28;98553.09;;;12.88;56.62
6506;BME280;3286;49.858;8.768;2023-04-22T03:52:54;98551.69;;;12.77;56.76
6506;BME280;3286;49.858;8.768;2023-04-22T03:55:21;98555.16;;;12.78;56.44
6506;BME280;3286;49.858;8.768;2023-04-22T03:57:49;98546.41;;;12.77;56.57
6506;BME280;3286;49.858;8.768;2023-04-22T04:00:16;98546.72;;;12.59;57.30
6506;BME280;3286;49.858;8.768;2023-04-22T04:02:42;98547.09;;;12.56;57.05
6506;BME280;3286;49.858;8.768;2023-04-22T04:05:09;98540.56;;;12.43;57.64
6506;BME280;3286;49.858;8.768;2023-04-22T04:07:36;98532.41;;;12.83;55.84
6506;BME280;3286;49.858;8.768;2023-04-22T04:10:03;98533.72;;;12.49;56.64
6506;BME280;3286;49.858;8.768;2023-04-22T04:12:30;98531.78;;;12.43;57.08
6506;BME280;3286;49.858;8.768;2023-04-22T04:14:58;98527.75;;;12.32;57.72
6506;BME280;3286;49.858;8.768;2023-04-22T04:17:25;98531.31;;;11.93;59.30
6506;BME280;3286;49.858;8.768;2023-04-22T04:19:53;98538.25;;;12.25;58.52
6506;BME280;3286;49.858;8.768;2023-04-22T04:22:20;98530.19;;;12.57;57.66
6506;BME280;3286;49.858;8.768;2023-04-22T04:24:46;98530.28;;;12.64;56.62
6506;BME280;3286;49.858;8.768;2023-04-22T04:27:14;98514.28;;;12.57;57.16
6506;BME280;3286;49.858;8.768;2023-04-22T04:29:40;98520.03;;;12.45;57.98
6506;BME280;3286;49.858;8.768;2023-04-22T04:32:08;98515.41;;;12.24;58.45
6506;BME280;3286;49.858;8.768;2023-04-22T04:34:35;98514.06;;;12.05;58.73
6506;BME280;3286;49.858;8.768;2023-04-22T04:37:02;98512.75;;;12.01;59.29
6506;BME280;3286;49.858;8.768;2023-04-22T04:39:29;98503.69;;;12.57;57.81
6506;BME280;3286;49.858;8.768;2023-04-22T04:41:57;98510.19;;;11.84;60.01
6506;BME280;3286;49.858;8.768;2023-04-22T04:44:24;98513.72;;;11.45;61.36
6506;BME280;3286;49.858;8.768;2023-04-22T04:46:51;98507.06;;;12.12;59.31
6506;BME280;3286;49.858;8.768;2023-04-22T04:49:20;98512.22;;;12.29;58.61
6506;BME280;3286;49.858;8.768;2023-04-22T04:51:47;98504.97;;;11.99;59.49
6506;BME280;3286;49.858;8.768;2023-04-22T04:54:13;98512.25;;;11.97;59.64
6506;BME280;3286;49.858;8.768;2023-04-22T04:56:40;98511.84;;;12.32;58.35
6506;BME280;3286;49.858;8.768;2023-04-22T04:59:07;98510.13;;;12.39;58.08
6506;BME280;3286;49.858;8.768;2023-04-22T05:01:34;98505.97;;;12.22;58.37
6506;BME280;3286;49.858;8.768;2023-04-22T05:04:00;98509.44;;;12.45;57.97
6506;BME280;3286;49.858;8.768;2023-04-22T05:06:28;98505.06;;;12.53;57.94
6506;BME280;3286;49.858;8.768;2023-04-22T05:08:55;98507.47;;;12.39;58.25
6506;BME280;3286;49.858;8.768;2023-04-22T05:11:22;98511.25;;;12.45;57.98
6506;BME280;3286;49.858;8.768;2023-04-22T05:13:48;98507.78;;;12.59;57.67
6506;BME280;3286;49.858;8.768;2023-04-22T05:16:15;98510.38;;;12.68;57.29
6506;BME280;3286;49.858;8.768;2023-04-22T05:18:42;98509.34;;;12.54;57.97
6506;BME280;3286;49.858;8.768;2023-04-22T05:21:08;98505.91;;;12.68;57.18
6506;BME280;3286;49.858;8.768;2023-04-22T05:23:36;98502.25;;;12.99;56.78
6506;BME280;3286;49.858;8.768;2023-04-22T05:26:03;98506.16;;;12.58;57.49
6506;BME280;3286;49.858;8.768;2023-04-22T05:28:30;98507.09;;;12.66;57.12
6506;BME280;3286;49.858;8.768;2023-04-22T05:30:56;98514.13;;;12.73;57.06
6506;BME280;3286;49.858;8.768;2023-04-22T05:33:23;98519.50;;;12.65;57.07
6506;BME280;3286;49.858;8.768;2023-04-22T05:35:50;98520.03;;;12.60;57.48
6506;BME280;3286;49.858;8.768;2023-04-22T05:38:16;98521.16;;;12.66;57.29
6506;BME280;3286;49.858;8.768;2023-04-22T05:40:44;98522.28;;;12.87;56.82
6506;BME280;3286;49.858;8.768;2023-04-22T05:43:11;98512.03;;;12.99;56.36
6506;BME280;3286;49.858;8.768;2023-04-22T05:45:37;98512.41;;;12.96;56.37
6506;BME280;3286;49.858;8.768;2023-04-22T05:48:04;98513.22;;;12.96;55.99
6506;BME280;3286;49.858;8.768;2023-04-22T05:50:31;98512.88;;;12.99;56.32
6506;BME280;3286;49.858;8.768;2023-04-22T05:52:57;98512.66;;;13.16;55.91
6506;BME280;3286;49.858;8.768;2023-04-22T05:55:24;98522.84;;;13.12;55.96
6506;BME280;3286;49.858;8.768;2023-04-22T05:57:52;98520.19;;;13.27;55.87
6506;BME280;3286;49.858;8.768;2023-04-22T06:00:19;98531.78;;;13.11;56.75
6506;BME280;3286;49.858;8.768;2023-04-22T06:02:45;98524.84;;;13.10;56.52
6506;BME280;3286;49.858;8.768;2023-04-22T06:05:12;98535.50;;;13.32;56.46
6506;BME280;3286;49.858;8.768;2023-04-22T06:07:39;98516.03;;;13.55;55.97
6506;BME280;3286;49.858;8.768;2023-04-22T06:10:07;98521.34;;;13.55;56.03
6506;BME280;3286;49.858;8.768;2023-04-22T06:12:34;98527.31;;;13.79;55.39
6506;BME280;3286;49.858;8.768;2023-04-22T06:15:02;98529.66;;;13.88;55.37
6506;BME280;3286;49.858;8.768;2023-04-22T06:17:29;98525.56;;;14.08;54.74
6506;BME280;3286;49.858;8.768;2023-04-22T06:19:56;98535.44;;;14.14;54.93
6506;BME280;3286;49.858;8.768;2023-04-22T06:22:22;98543.22;;;14.15;54.92
6506;BME280;3286;49.858;8.768;2023-04-22T06:24:49;98531.91;;;14.07;54.46
6506;BME280;3286;49.858;8.768;2023-04-22T06:27:15;98541.88;;;14.04;55.09
6506;BME280;3286;49.858;8.768;2023-04-22T06:29:42;98543.13;;;14.52;54.09
6506;BME280;3286;49.858;8.768;2023-04-22T06:32:10;98543.31;;;14.72;53.83
6506;BME280;3286;49.858;8.768;2023-04-22T06:34:37;98547.41;;;15.03;53.48
6506;BME280;3286;49.858;8.768;2023-04-22T06:37:03;98549.94;;;15.18;52.57
6506;BME280;3286;49.858;8.768;2023-04-22T06:39:30;98545.75;;;15.44;52.31
6506;BME280;3286;49.858;8.768;2023-04-22T06:41:57;98554.00;;;15.56;52.31
6506;BME280;3286;49.858;8.768;2023-04-22T06:44:23;98547.00;;;15.48;51.57
6506;BME280;3286;49.858;8.768;2023-04-22T06:46:50;98548.97;;;15.75;51.59
6506;BME280;3286;49.858;8.768;2023-04-22T06:49:18;98550.78;;;15.74;51.35
6506;BME280;3286;49.858;8.768;2023-04-22T06:51:45;98549.91;;;16.16;50.05
6506;BME280;3286;49.858;8.768;2023-04-22T06:54:11;98545.59;;;16.28;49.09
6506;BME280;3286;49.858;8.768;2023-04-22T06:56:38;98541.09;;;16.49;48.63
6506;BME280;3286;49.858;8.768;2023-04-22T06:59:05;98544.19;;;16.32;49.33
6506;BME280;3286;49.858;8.768;2023-04-22T07:01:32;98541.31;;;16.47;49.55
6506;BME280;3286;49.858;8.768;2023-04-22T07:03:58;98532.47;;;16.87;49.39
6506;BME280;3286;49.858;8.768;2023-04-22T07:06:26;98529.19;;;16.51;49.89
6506;BME280;3286;49.858;8.768;2023-04-22T07:08:53;98525.91;;;16.49;49.66
6506;BME280;3286;49.858;8.768;2023-04-22T07:11:20;98537.78;;;17.01;47.17
6506;BME280;3286;49.858;8.768;2023-04-22T07:13:46;98535.31;;;16.86;46.53
6506;BME280;3286;49.858;8.768;2023-04-22T07:16:13;98534.91;;;16.95;46.84
6506;BME280;3286;49.858;8.768;2023-04-22T07:18:39;98530.47;;;17.48;45.96
6506;BME280;3286;49.858;8.768;2023-04-22T07:21:06;98536.94;;;17.20;46.36
6506;BME280;3286;49.858;8.768;2023-04-22T07:23:34;98529.91;;;17.33;45.99
6506;BME280;3286;49.858;8.768;2023-04-22T07:26:01;98531.69;;;17.91;45.89
6506;BME280;3286;49.858;8.768;2023-04-22T07:28:27;98527.94;;;18.06;44.90
6506;BME280;3286;49.858;8.768;2023-04-22T07:30:54;98519.84;;;18.19;44.46
6506;BME280;3286;49.858;8.768;2023-04-22T07:33:21;98526.22;;;18.44;44.49
6506;BME280;3286;49.858;8.768;2023-04-22T07:35:47;98522.09;;;18.66;43.34
6506;BME280;3286;49.858;8.768;2023-04-22T07:38:14;98513.22;;;18.22;44.84
6506;BME280;3286;49.858;8.768;2023-04-22T07:40:42;98511.75;;;17.48;45.87
6506;BME280;3286;49.858;8.768;2023-04-22T07:43:09;98513.75;;;17.99;44.94
6506;BME280;3286;49.858;8.768;2023-04-22T07:45:35;98509.16;;;18.45;44.30
6506;BME280;3286;49.858;8.768;2023-04-22T07:48:03;98510.59;;;18.15;44.64
6506;BME280;3286;49.858;8.768;2023-04-22T07:50:29;98516.03;;;19.03;42.92
6506;BME280;3286;49.858;8.768;2023-04-22T07:52:56;98504.66;;;19.27;42.08
6506;BME280;3286;49.858;8.768;2023-04-22T07:55:23;98511.53;;;19.34;41.50
6506;BME280;3286;49.858;8.768;2023-04-22T07:57:51;98508.91;;;19.65;41.25
6506;BME280;3286;49.858;8.768;2023-04-22T08:00:17;98512.72;;;19.88;40.65
6506;BME280;3286;49.858;8.768;2023-04-22T08:02:44;98503.28;;;19.85;40.98
6506;BME280;3286;49.858;8.768;2023-04-22T08:05:11;98507.09;;;20.08;41.33
6506;BME280;3286;49.858;8.768;2023-04-22T08:07:38;98504.34;;;19.65;41.24
6506;BME280;3286;49.858;8.768;2023-04-22T08:10:06;98510.25;;;19.55;41.59
6506;BME280;3286;49.858;8.768;2023-04-22T08:12:32;98502.81;;;19.88;41.33
6506;BME280;3286;49.858;8.768;2023-04-22T08:15:00;98500.28;;;19.93;41.32
6506;BME280;3286;49.858;8.768;2023-04-22T08:17:27;98498.25;;;20.31;40.55
6506;BME280;3286;49.858;8.768;2023-04-22T08:19:54;98500.72;;;20.56;40.37
6506;BME280;3286;49.858;8.768;2023-04-22T08:22:20;98496.44;;;21.03;38.71
6506;BME280;3286;49.858;8.768;2023-04-22T08:24:48;98495.94;;;20.70;39.00
6506;BME280;3286;49.858;8.768;2023-04-22T08:27:14;98499.34;;;20.90;37.81
6506;BME280;3286;49.858;8.768;2023-04-22T08:29:41;98496.91;;;20.88;38.09
6506;BME280;3286;49.858;8.768;2023-04-22T08:32:09;98495.41;;;21.33;38.19
6506;BME280;3286;49.858;8.768;2023-04-22T08:34:35;98483.44;;;21.53;37.97
6506;BME280;3286;49.858;8.768;2023-04-22T08:37:02;98483.69;;;21.80;37.07
6506;BME280;3286;49.858;8.768;2023-04-22T08:39:29;98487.97;;;21.93;37.20
6506;BME280;3286;49.858;8.768;2023-04-22T08:41:56;98484.53;;;22.32;36.79
6506;BME280;3286;49.858;8.768;2023-04-22T08:44:23;98481.03;;;23.05;36.33
6506;BME280;3286;49.858;8.768;2023-04-22T08:46:51;98487.16;;;23.23;36.16
6506;BME280;3286;49.858;8.768;2023-04-22T08:49:22;98476.38;;;23.23;36.44
6506;BME280;3286;49.858;8.768;2023-04-22T08:51:49;98475.66;;;22.66;37.13
6506;BME280;3286;49.858;8.768;2023-04-22T08:54:17;98480.91;;;23.39;36.85
6506;BME280;3286;49.858;8.768;2023-04-22T08:56:44;98479.41;;;23.49;35.66
6506;BME280;3286;49.858;8.768;2023-04-22T08:59:12;98470.88;;;22.90;35.10
6506;BME280;3286;49.858;8.768;2023-04-22T09:01:40;98475.41;;;22.67;35.92
6506;BME280;3286;49.858;8.768;2023-04-22T09:04:08;98475.31;;;23.46;35.66
6506;BME280;3286;49.858;8.768;2023-04-22T09:06:37;98463.13;;;23.66;35.67
6506;BME280;3286;49.858;8.768;2023-04-22T09:09:04;98463.09;;;23.88;35.31
6506;BME280;3286;49.858;8.768;2023-04-22T09:11:32;98465.81;;;23.38;35.71
6506;BME280;3286;49.858;8.768;2023-04-22T09:14:00;98465.13;;;23.26;35.72
6506;BME280;3286;49.858;8.768;2023-04-22T09:16:28;98464.13;;;23.32;35.27
6506;BME280;3286;49.858;8.768;2023-04-22T09:18:57;98463.47;;;23.47;35.73
6506;BME280;3286;49.858;8.768;2023-04-22T09:21:24;98464.59;;;23.79;35.59
6506;BME280;3286;49.858;8.768;2023-04-22T09:23:55;98462.09;;;23.99;35.05
6506;BME280;3286;49.858;8.768;2023-04-22T09:26:25;98457.31;;;23.79;36.56
6506;BME280;3286;49.858;8.768;2023-04-22T09:28:56;98465.75;;;24.15;34.91
6506;BME280;3286;49.858;8.768;2023-04-22T09:31:26;98462.88;;;24.27;35.21
6506;BME280;3286;49.858;8.768;2023-04-22T09:33:55;98468.25;;;23.67;36.03
6506;BME280;3286;49.858;8.768;2023-04-22T09:36:25;98453.13;;;23.94;34.87
6506;BME280;3286;49.858;8.768;2023-04-22T09:38:57;98463.03;;;24.91;32.99
6506;BME280;3286;49.858;8.768;2023-04-22T09:41:27;98449.59;;;25.17;32.91
6506;BME280;3286;49.858;8.768;2023-04-22T09:43:55;98456.94;;;24.68;33.59
6506;BME280;3286;49.858;8.768;2023-04-22T09:46:23;98457.03;;;24.84;32.71
6506;BME280;3286;49.858;8.768;2023-04-22T09:48:50;98452.34;;;24.69;33.46
6506;BME280;3286;49.858;8.768;2023-04-22T09:51:18;98451.94;;;24.93;33.14
6506;BME280;3286;49.858;8.768;2023-04-22T09:53:57;98448.00;;;25.26;32.73
6506;BME280;3286;49.858;8.768;2023-04-22T09:56:39;98452.13;;;24.33;33.14
6506;BME280;3286;49.858;8.768;2023-04-22T09:59:06;98443.22;;;24.37;33.34
6506;BME280;3286;49.858;8.768;2023-04-22T10:01:34;98446.75;;;24.38;34.03
6506;BME280;3286;49.858;8.768;2023-04-22T10:04:04;98440.56;;;24.80;33.91
6506;BME280;3286;49.858;8.768;2023-04-22T10:06:32;98440.28;;;24.82;33.06
6506;BME280;3286;49.858;8.768;2023-04-22T10:09:00;98441.34;;;24.81;33.34
6506;BME280;3286;49.858;8.768;2023-04-22T10:11:29;98438.72;;;24.96;32.48
6506;BME280;3286;49.858;8.768;2023-04-22T10:13:56;98428.59;;;25.40;32.46
6506;BME280;3286;49.858;8.768;2023-04-22T10:16:24;98430.66;;;24.53;29.35
6506;BME280;3286;49.858;8.768;2023-04-22T10:18:53;98425.84;;;25.24;29.94
6506;BME280;3286;49.858;8.768;2023-04-22T10:21:23;98419.47;;;25.82;29.65
6506;BME280;3286;49.858;8.768;2023-04-22T10:23:51;98419.31;;;25.10;28.49
6506;BME280;3286;49.858;8.768;2023-04-22T10:26:41;98423.38;;;24.54;28.65
6506;BME280;3286;49.858;8.768;2023-04-22T10:29:08;98425.16;;;25.81;27.95
6506;BME280;3286;49.858;8.768;2023-04-22T10:31:38;98414.31;;;26.27;25.95
6506;BME280;3286;49.858;8.768;2023-04-22T10:34:09;98415.38;;;26.47;26.37
6506;BME280;3286;49.858;8.768;2023-04-22T10:36:55;98414.34;;;26.17;26.32
6506;BME280;3286;49.858;8.768;2023-04-22T10:39:23;98425.16;;;24.86;29.81
6506;BME280;3286;49.858;8.768;2023-04-22T10:41:53;98416.69;;;25.30;26.05
6506;BME280;3286;49.858;8.768;2023-04-22T10:44:21;98417.03;;;26.01;25.82
6506;BME280;3286;49.858;8.768;2023-04-22T10:46:55;98424.75;;;24.62;26.53
6506;BME280;3286;49.858;8.768;2023-04-22T10:49:23;98409.97;;;25.49;26.15
6506;BME280;3286;49.858;8.768;2023-04-22T10:51:51;98408.13;;;26.22;25.75
6506;BME280;3286;49.858;8.768;2023-04-22T10:54:56;98401.00;;;26.46;23.99
6506;BME280;3286;49.858;8.768;2023-04-22T10:57:31;98402.34;;;27.25;24.15
6506;BME280;3286;49.858;8.768;2023-04-22T11:00:16;98401.06;;;27.92;24.46
6506;BME280;3286;49.858;8.768;2023-04-22T11:02:43;98402.13;;;26.09;25.97
6506;BME280;3286;49.858;8.768;2023-04-22T11:05:18;98395.34;;;26.43;24.62
6506;BME280;3286;49.858;8.768;2023-04-22T11:07:46;98400.44;;;26.65;24.86
6506;BME280;3286;49.858;8.768;2023-04-22T11:10:30;98396.75;;;27.06;24.26
6506;BME280;3286;49.858;8.768;2023-04-22T11:13:00;98395.38;;;26.38;24.07
6506;BME280;3286;49.858;8.768;2023-04-22T11:15:29;98395.03;;;26.50;24.74
6506;BME280;3286;49.858;8.768;2023-04-22T11:17:56;98392.44;;;25.72;24.69
6506;BME280;3286;49.858;8.768;2023-04-22T11:20:23;98397.47;;;25.27;25.72
6506;BME280;3286;49.858;8.768;2023-04-22T11:22:51;98391.06;;;25.59;25.83
6506;BME280;3286;49.858;8.768;2023-04-22T11:25:18;98396.22;;;25.76;25.96
6506;BME280;3286;49.858;8.768;2023-04-22T11:27:45;98400.59;;;24.87;26.79
6506;BME280;3286;49.858;8.768;2023-04-22T11:30:15;98393.72;;;25.43;25.97
6506;BME280;3286;49.858;8.768;2023-04-22T11:32:42;98388.03;;;25.29;26.97
6506;BME280;3286;49.858;8.768;2023-04-22T11:35:11;98387.41;;;24.96;27.57
6506;BME280;3286;49.858;8.768;2023-04-22T11:37:42;98397.66;;;24.89;26.44
6506;BME280;3286;49.858;8.768;2023-04-22T11:40:10;98394.56;;;24.70;26.63
6506;BME280;3286;49.858;8.768;2023-04-22T11:42:38;98386.38;;;25.28;27.00
6506;BME280;3286;49.858;8.768;2023-04-22T11:45:06;98389.78;;;24.82;27.40
6506;BME280;3286;49.858;8.768;2023-04-22T11:47:35;98398.94;;;24.76;27.11
6506;BME280;3286;49.858;8.768;2023-04-22T11:50:03;98379.22;;;24.81;27.27
6506;BME280;3286;49.858;8.768;2023-04-22T11:52:41;98385.56;;;25.23;26.68
6506;BME280;3286;49.858;8.768;2023-04-22T11:55:10;98380.78;;;25.87;25.79
6506;BME280;3286;49.858;8.768;2023-04-22T11:57:37;98379.91;;;26.43;26.47
6506;BME280;3286;49.858;8.768;2023-04-22T12:00:04;98382.41;;;25.88;26.35
6506;BME280;3286;49.858;8.768;2023-04-22T12:02:31;98384.84;;;25.95;26.23
6506;BME280;3286;49.858;8.768;2023-04-22T12:05:01;98381.25;;;25.32;26.83
6506;BME280;3286;49.858;8.768;2023-04-22T12:07:27;98376.44;;;26.22;25.45
6506;BME280;3286;49.858;8.768;2023-04-22T12:09:54;98380.50;;;25.99;26.53
6506;BME280;3286;49.858;8.768;2023-04-22T12:12:23;98378.03;;;25.30;27.83
6506;BME280;3286;49.858;8.768;2023-04-22T12:14:50;98382.06;;;24.58;29.25
6506;BME280;3286;49.858;8.768;2023-04-22T12:17:21;98382.34;;;24.57;28.86
6506;BME280;3286;49.858;8.768;2023-04-22T12:19:52;98382.75;;;24.81;27.42
6506;BME280;3286;49.858;8.768;2023-04-22T12:22:24;98372.66;;;24.61;28.16
6506;BME280;3286;49.858;8.768;2023-04-22T12:24:51;98372.28;;;25.00;28.39
6506;BME280;3286;49.858;8.768;2023-04-22T12:27:18;98371.53;;;25.21;27.94
6506;BME280;3286;49.858;8.768;2023-04-22T12:29:50;98368.59;;;25.43;27.33
6506;BME280;3286;49.858;8.768;2023-04-22T12:32:17;98360.19;;;25.44;28.09
6506;BME280;3286;49.858;8.768;2023-04-22T12:34:44;98375.03;;;25.21;27.31
6506;BME280;3286;49.858;8.768;2023-04-22T12:37:10;98378.69;;;24.79;27.31
6506;BME280;3286;49.858;8.768;2023-04-22T12:39:38;98371.53;;;25.41;26.95
6506;BME280;3286;49.858;8.768;2023-04-22T12:42:06;98373.22;;;25.94;27.21
6506;BME280;3286;49.858;8.768;2023-04-22T12:44:33;98367.22;;;26.34;26.46
6506;BME280;3286;49.858;8.768;2023-04-22T12:47:00;98370.44;;;25.22;27.07
6506;BME280;3286;49.858;8.768;2023-04-22T12:49:27;98379.00;;;24.98;26.31
6506;BME280;3286;49.858;8.768;2023-04-22T12:51:54;98368.50;;;25.07;26.59
6506;BME280;3286;49.858;8.768;2023-04-22T12:54:21;98366.72;;;25.69;26.52
6506;BME280;3286;49.858;8.768;2023-04-22T12:56:49;98366.38;;;25.24;26.23
6506;BME280;3286;49.858;8.768;2023-04-22T12:59:16;98369.13;;;25.97;26.61
6506;BME280;3286;49.858;8.768;2023-04-22T13:01:43;98363.72;;;25.97;25.91
6506;BME280;3286;49.858;8.768;2023-04-22T13:04:09;98361.59;;;25.88;24.90
6506;BME280;3286;49.858;8.768;2023-04-22T13:06:36;98376.69;;;25.38;26.75
6506;BME280;3286;49.858;8.768;2023-04-22T13:09:03;98374.31;;;25.67;26.08
6506;BME280;3286;49.858;8.768;2023-04-22T13:11:30;98376.94;;;25.21;26.92
6506;BME280;3286;49.858;8.768;2023-04-22T13:13:58;98370.81;;;24.72;26.35
6506;BME280;3286;49.858;8.768;2023-04-22T13:16:25;98375.72;;;24.32;27.03
6506;BME280;3286;49.858;8.768;2023-04-22T13:18:51;98386.19;;;23.85;28.33
6506;BME280;3286;49.858;8.768;2023-04-22T13:21:18;98386.16;;;23.80;28.01
6506;BME280;3286;49.858;8.768;2023-04-22T13:23:45;98377.53;;;23.83;28.57
6506;BME280;3286;49.858;8.768;2023-04-22T13:26:11;98375.44;;;23.91;28.70